sensor_id;sensor_type;location;lat;lon;timestamp;pressure;altitude;pressure_sealevel;temperature;humidity
35878;BME280;21982;49.804;24.072;2023-03-13T00:00:30;97082.06;;;2.95;51.35
35878;BME280;21982;49.804;24.072;2023-03-13T00:02:56;97034.88;;;2.69;51.04
35878;BME280;21982;49.804;24.072;2023-03-13T00:05:21;97076.97;;;2.94;51.28
35878;BME280;21982;49.804;24.072;2023-03-13T00:07:47;97050.81;;;2.76;50.90
35878;BME280;21982;49.804;24.072;2023-03-13T00:10:12;96950.41;;;2.14;51.53
35878;BME280;21982;49.804;24.072;2023-03-13T00:12:37;96890.66;;;1.74;50.97
35878;BME280;21982;49.804;24.072;2023-03-13T00:15:03;97087.88;;;2.89;50.99
35878;BME280;21982;49.804;24.072;2023-03-13T00:17:28;97074.66;;;2.91;50.84
35878;BME280;21982;49.804;24.072;2023-03-13T00:19:58;97053.06;;;2.89;51.65
35878;BME280;21982;49.804;24.072;2023-03-13T00:22:23;97057.59;;;2.87;51.06
35878;BME280;21982;49.804;24.072;2023-03-13T00:24:49;97054.69;;;2.90;51.01
35878;BME280;21982;49.804;24.072;2023-03-13T00:27:14;96996.72;;;2.49;50.89
35878;BME280;21982;49.804;24.072;2023-03-13T00:29:39;96438.16;;;-1.06;50.63
35878;BME280;21982;49.804;24.072;2023-03-13T00:32:05;97055.38;;;2.92;51.17
35878;BME280;21982;49.804;24.072;2023-03-13T00:34:30;96903.47;;;2.05;50.43
35878;BME280;21982;49.804;24.072;2023-03-13T00:36:56;97050.84;;;2.94;50.54
35878;BME280;21982;49.804;24.072;2023-03-13T00:39:21;97030.53;;;2.78;50.71
35878;BME280;21982;49.804;24.072;2023-03-13T00:41:48;97038.34;;;2.88;51.51
35878;BME280;21982;49.804;24.072;2023-03-13T00:44:16;97011.53;;;2.58;51.24
35878;BME280;21982;49.804;24.072;2023-03-13T00:46:41;96971.16;;;2.43;51.15
35878;BME280;21982;49.804;24.072;2023-03-13T00:49:06;96952.41;;;2.30;51.03
35878;BME280;21982;49.804;24.072;2023-03-13T00:51:32;97048.25;;;2.84;50.96
35878;BME280;21982;49.804;24.072;2023-03-13T00:53:58;97048.13;;;2.86;51.11
35878;BME280;21982;49.804;24.072;2023-03-13T00:56:28;97054.03;;;2.88;51.05
35878;BME280;21982;49.804;24.072;2023-03-13T00:58:54;97062.69;;;2.88;51.52
35878;BME280;21982;49.804;24.072;2023-03-13T01:01:22;97056.34;;;2.91;51.15
35878;BME280;21982;49.804;24.072;2023-03-13T01:04:03;97045.59;;;2.94;50.84
35878;BME280;21982;49.804;24.072;2023-03-13T01:06:30;96957.47;;;2.31;51.83
35878;BME280;21982;49.804;24.072;2023-03-13T01:08:56;97044.16;;;2.82;51.14
35878;BME280;21982;49.804;24.072;2023-03-13T01:11:25;97038.25;;;2.80;51.78
35878;BME280;21982;49.804;24.072;2023-03-13T01:13:59;97039.19;;;2.79;51.18
35878;BME280;21982;49.804;24.072;2023-03-13T01:16:26;96985.50;;;2.39;51.77
35878;BME280;21982;49.804;24.072;2023-03-13T01:18:54;97025.91;;;2.72;51.85
35878;BME280;21982;49.804;24.072;2023-03-13T01:21:21;97027.72;;;2.72;51.56
35878;BME280;21982;49.804;24.072;2023-03-13T01:23:48;96973.69;;;2.35;52.27
35878;BME280;21982;49.804;24.072;2023-03-13T01:26:14;97022.34;;;2.73;52.18
35878;BME280;21982;49.804;24.072;2023-03-13T01:28:40;96952.41;;;2.30;52.28
35878;BME280;21982;49.804;24.072;2023-03-13T01:31:19;97009.59;;;2.60;51.98
35878;BME280;21982;49.804;24.072;2023-03-13T01:33:46;96945.94;;;2.34;51.75
35878;BME280;21982;49.804;24.072;2023-03-13T01:36:12;96846.44;;;1.73;51.81
35878;BME280;21982;49.804;24.072;2023-03-13T01:38:38;96991.50;;;2.77;52.00
35878;BME280;21982;49.804;24.072;2023-03-13T01:41:05;96907.88;;;2.22;52.15
35878;BME280;21982;49.804;24.072;2023-03-13T01:43:34;96997.91;;;2.82;52.21
35878;BME280;21982;49.804;24.072;2023-03-13T01:48:55;96990.72;;;2.84;51.81
35878;BME280;21982;49.804;24.072;2023-03-13T01:51:28;97003.66;;;2.86;52.33
35878;BME280;21982;49.804;24.072;2023-03-13T01:54:18;96907.03;;;2.31;52.19
35878;BME280;21982;49.804;24.072;2023-03-13T01:57:02;97001.03;;;2.86;51.86
35878;BME280;21982;49.804;24.072;2023-03-13T01:59:45;97011.06;;;2.90;51.86
35878;BME280;21982;49.804;24.072;2023-03-13T02:02:14;97023.19;;;2.91;51.69
35878;BME280;21982;49.804;24.072;2023-03-13T02:04:44;96984.00;;;2.82;52.21
35878;BME280;21982;49.804;24.072;2023-03-13T02:07:16;96889.56;;;2.31;52.02
35878;BME280;21982;49.804;24.072;2023-03-13T02:09:43;96776.84;;;1.63;51.73
35878;BME280;21982;49.804;24.072;2023-03-13T02:12:32;96738.69;;;1.35;52.06
35878;BME280;21982;49.804;24.072;2023-03-13T02:15:00;97012.75;;;3.09;51.99
35878;BME280;21982;49.804;24.072;2023-03-13T02:17:27;97002.63;;;3.14;51.62
35878;BME280;21982;49.804;24.072;2023-03-13T02:19:53;96999.56;;;3.19;51.15
35878;BME280;21982;49.804;24.072;2023-03-13T02:27:31;97004.28;;;3.15;50.76
35878;BME280;21982;49.804;24.072;2023-03-13T02:29:57;96992.69;;;3.18;51.13
35878;BME280;21982;49.804;24.072;2023-03-13T02:32:25;96894.44;;;2.62;50.72
35878;BME280;21982;49.804;24.072;2023-03-13T02:34:55;97024.50;;;3.41;50.03
35878;BME280;21982;49.804;24.072;2023-03-13T02:37:24;96982.38;;;3.16;49.95
35878;BME280;21982;49.804;24.072;2023-03-13T02:39:51;97024.19;;;3.44;50.06
35878;BME280;21982;49.804;24.072;2023-03-13T02:42:18;96983.66;;;3.12;49.10
35878;BME280;21982;49.804;24.072;2023-03-13T02:44:46;97024.25;;;3.52;49.36
35878;BME280;21982;49.804;24.072;2023-03-13T02:47:19;97030.38;;;3.60;48.94
35878;BME280;21982;49.804;24.072;2023-03-13T02:49:45;96924.84;;;2.98;49.10
35878;BME280;21982;49.804;24.072;2023-03-13T02:52:18;97028.94;;;3.66;48.96
35878;BME280;21982;49.804;24.072;2023-03-13T02:54:47;97022.28;;;3.72;48.63
35878;BME280;21982;49.804;24.072;2023-03-13T02:57:14;97019.66;;;3.72;49.23
35878;BME280;21982;49.804;24.072;2023-03-13T02:59:39;97011.38;;;3.58;48.55
35878;BME280;21982;49.804;24.072;2023-03-13T03:02:05;97017.56;;;3.75;48.65
35878;BME280;21982;49.804;24.072;2023-03-13T03:04:32;96994.53;;;3.61;48.13
35878;BME280;21982;49.804;24.072;2023-03-13T03:06:57;96908.59;;;3.13;48.69
35878;BME280;21982;49.804;24.072;2023-03-13T03:09:23;97026.09;;;3.77;48.57
35878;BME280;21982;49.804;24.072;2023-03-13T03:11:49;97014.50;;;3.80;48.47
35878;BME280;21982;49.804;24.072;2023-03-13T03:14:15;96839.19;;;2.75;48.41
35878;BME280;21982;49.804;24.072;2023-03-13T03:16:40;97002.03;;;3.82;48.22
35878;BME280;21982;49.804;24.072;2023-03-13T03:19:07;97012.38;;;3.83;47.66
35878;BME280;21982;49.804;24.072;2023-03-13T03:21:32;96845.00;;;2.68;47.97
35878;BME280;21982;49.804;24.072;2023-03-13T03:23:58;97016.94;;;3.81;47.63
35878;BME280;21982;49.804;24.072;2023-03-13T03:26:23;96969.91;;;3.46;47.62
35878;BME280;21982;49.804;24.072;2023-03-13T03:28:50;97017.59;;;3.83;48.09
35878;BME280;21982;49.804;24.072;2023-03-13T03:31:16;97023.81;;;3.82;47.95
35878;BME280;21982;49.804;24.072;2023-03-13T03:33:42;96993.88;;;3.59;47.69
35878;BME280;21982;49.804;24.072;2023-03-13T03:36:10;97020.06;;;3.85;47.90
35878;BME280;21982;49.804;24.072;2023-03-13T03:38:38;96984.06;;;3.61;47.66
35878;BME280;21982;49.804;24.072;2023-03-13T03:41:04;97021.56;;;3.87;47.83
35878;BME280;21982;49.804;24.072;2023-03-13T03:43:30;96968.13;;;3.54;47.46
35878;BME280;21982;49.804;24.072;2023-03-13T03:45:57;97029.41;;;3.87;47.49
35878;BME280;21982;49.804;24.072;2023-03-13T03:48:22;96996.56;;;3.67;47.54
35878;BME280;21982;49.804;24.072;2023-03-13T03:50:49;96999.84;;;3.69;47.29
35878;BME280;21982;49.804;24.072;2023-03-13T03:53:15;97039.91;;;3.87;47.73
35878;BME280;21982;49.804;24.072;2023-03-13T03:55:40;96932.59;;;3.26;47.21
35878;BME280;21982;49.804;24.072;2023-03-13T03:58:06;96990.66;;;3.65;47.50
35878;BME280;21982;49.804;24.072;2023-03-13T04:00:31;97026.50;;;3.90;47.47
35878;BME280;21982;49.804;24.072;2023-03-13T04:02:56;96993.41;;;3.63;47.44
35878;BME280;21982;49.804;24.072;2023-03-13T04:05:22;96929.81;;;3.27;47.19
35878;BME280;21982;49.804;24.072;2023-03-13T04:07:48;97021.41;;;3.89;47.07
35878;BME280;21982;49.804;24.072;2023-03-13T04:10:13;96994.31;;;3.72;47.20
35878;BME280;21982;49.804;24.072;2023-03-13T04:12:39;97013.97;;;3.76;47.54
35878;BME280;21982;49.804;24.072;2023-03-13T04:15:05;96898.63;;;3.08;47.75
35878;BME280;21982;49.804;24.072;2023-03-13T04:17:30;96974.50;;;3.52;47.36
35878;BME280;21982;49.804;24.072;2023-03-13T04:19:56;96942.16;;;3.35;47.30
35878;BME280;21982;49.804;24.072;2023-03-13T04:22:21;96927.28;;;3.18;47.02
35878;BME280;21982;49.804;24.072;2023-03-13T04:24:47;97003.13;;;3.71;47.18
35878;BME280;21982;49.804;24.072;2023-03-13T04:27:12;97011.28;;;3.68;47.52
35878;BME280;21982;49.804;24.072;2023-03-13T04:29:38;97034.00;;;3.85;47.04
35878;BME280;21982;49.804;24.072;2023-03-13T04:32:03;97050.69;;;3.84;47.89
35878;BME280;21982;49.804;24.072;2023-03-13T04:34:29;96386.78;;;-0.28;47.32
35878;BME280;21982;49.804;24.072;2023-03-13T04:36:55;96938.53;;;3.10;47.80
35878;BME280;21982;49.804;24.072;2023-03-13T04:39:21;97056.59;;;3.86;47.49
35878;BME280;21982;49.804;24.072;2023-03-13T04:41:51;97050.06;;;3.90;48.07
35878;BME280;21982;49.804;24.072;2023-03-13T04:44:18;97051.72;;;3.91;47.71
35878;BME280;21982;49.804;24.072;2023-03-13T04:46:43;97050.75;;;3.92;48.08
35878;BME280;21982;49.804;24.072;2023-03-13T04:49:09;96806.91;;;2.48;47.84
35878;BME280;21982;49.804;24.072;2023-03-13T04:51:36;97048.28;;;3.91;47.61
35878;BME280;21982;49.804;24.072;2023-03-13T04:54:01;97028.09;;;3.83;48.34
35878;BME280;21982;49.804;24.072;2023-03-13T04:56:27;96931.78;;;3.25;48.06
35878;BME280;21982;49.804;24.072;2023-03-13T04:58:53;96929.47;;;3.22;48.45
35878;BME280;21982;49.804;24.072;2023-03-13T05:01:18;97061.13;;;4.02;48.44
35878;BME280;21982;49.804;24.072;2023-03-13T05:03:44;96997.16;;;3.61;49.00
35878;BME280;21982;49.804;24.072;2023-03-13T05:06:09;96978.72;;;3.45;49.22
35878;BME280;21982;49.804;24.072;2023-03-13T05:08:35;96892.88;;;2.87;48.99
35878;BME280;21982;49.804;24.072;2023-03-13T05:11:01;97071.19;;;3.89;49.38
35878;BME280;21982;49.804;24.072;2023-03-13T05:13:27;97032.53;;;3.65;50.07
35878;BME280;21982;49.804;24.072;2023-03-13T05:15:53;97060.34;;;3.84;50.27
35878;BME280;21982;49.804;24.072;2023-03-13T05:18:18;97036.66;;;3.67;50.41
35878;BME280;21982;49.804;24.072;2023-03-13T05:20:43;97054.94;;;3.85;50.05
35878;BME280;21982;49.804;24.072;2023-03-13T05:23:09;97071.19;;;3.89;50.23
35878;BME280;21982;49.804;24.072;2023-03-13T05:25:34;97013.47;;;3.55;50.64
35878;BME280;21982;49.804;24.072;2023-03-13T05:28:00;97035.91;;;3.75;50.30
35878;BME280;21982;49.804;24.072;2023-03-13T05:30:25;96897.72;;;2.82;50.37
35878;BME280;21982;49.804;24.072;2023-03-13T05:32:51;97049.28;;;3.72;50.70
35878;BME280;21982;49.804;24.072;2023-03-13T05:35:16;96988.16;;;3.38;50.62
35878;BME280;21982;49.804;24.072;2023-03-13T05:37:41;96910.94;;;2.98;51.08
35878;BME280;21982;49.804;24.072;2023-03-13T05:42:43;97077.00;;;4.00;51.84
35878;BME280;21982;49.804;24.072;2023-03-13T05:45:09;97057.25;;;3.88;51.50
35878;BME280;21982;49.804;24.072;2023-03-13T05:47:35;97026.09;;;3.77;51.46
35878;BME280;21982;49.804;24.072;2023-03-13T05:50:03;97053.38;;;3.92;52.06
35878;BME280;21982;49.804;24.072;2023-03-13T05:52:29;97062.41;;;3.98;52.61
35878;BME280;21982;49.804;24.072;2023-03-13T05:54:54;97056.59;;;3.86;52.42
35878;BME280;21982;49.804;24.072;2023-03-13T05:57:20;97021.47;;;3.71;52.52
35878;BME280;21982;49.804;24.072;2023-03-13T05:59:45;96976.84;;;3.37;53.13
35878;BME280;21982;49.804;24.072;2023-03-13T06:02:10;97078.81;;;4.00;53.73
35878;BME280;21982;49.804;24.072;2023-03-13T06:04:37;97077.69;;;4.02;54.05
35878;BME280;21982;49.804;24.072;2023-03-13T06:07:02;97027.31;;;3.65;54.15
35878;BME280;21982;49.804;24.072;2023-03-13T06:09:27;97064.06;;;3.99;54.73
35878;BME280;21982;49.804;24.072;2023-03-13T06:11:55;97076.56;;;3.87;55.74
35878;BME280;21982;49.804;24.072;2023-03-13T06:14:20;96851.94;;;2.42;56.22
35878;BME280;21982;49.804;24.072;2023-03-13T06:16:46;97088.19;;;3.67;56.36
35878;BME280;21982;49.804;24.072;2023-03-13T06:19:11;97058.91;;;3.46;56.82
35878;BME280;21982;49.804;24.072;2023-03-13T06:21:37;97080.25;;;3.59;56.73
35878;BME280;21982;49.804;24.072;2023-03-13T06:24:02;97047.91;;;3.42;56.98
35878;BME280;21982;49.804;24.072;2023-03-13T06:26:28;96966.38;;;2.84;57.26
35878;BME280;21982;49.804;24.072;2023-03-13T06:28:55;97036.00;;;3.30;57.43
35878;BME280;21982;49.804;24.072;2023-03-13T06:31:20;96903.88;;;2.45;57.78
35878;BME280;21982;49.804;24.072;2023-03-13T06:33:46;97050.03;;;3.47;58.15
35878;BME280;21982;49.804;24.072;2023-03-13T06:36:11;97072.19;;;3.70;58.47
35878;BME280;21982;49.804;24.072;2023-03-13T06:38:37;97023.88;;;3.47;57.98
35878;BME280;21982;49.804;24.072;2023-03-13T06:41:02;96928.41;;;2.80;57.57
35878;BME280;21982;49.804;24.072;2023-03-13T06:43:28;97001.31;;;3.10;57.92
35878;BME280;21982;49.804;24.072;2023-03-13T06:45:54;96994.44;;;3.45;57.75
35878;BME280;21982;49.804;24.072;2023-03-13T06:48:23;96963.16;;;3.25;57.62
35878;BME280;21982;49.804;24.072;2023-03-13T06:50:49;97108.88;;;4.14;57.42
35878;BME280;21982;49.804;24.072;2023-03-13T06:53:17;97088.31;;;4.27;57.26
35878;BME280;21982;49.804;24.072;2023-03-13T06:55:43;97029.19;;;3.98;57.15
35878;BME280;21982;49.804;24.072;2023-03-13T06:58:08;96788.69;;;2.56;56.75
35878;BME280;21982;49.804;24.072;2023-03-13T07:00:34;97064.88;;;4.51;56.71
35878;BME280;21982;49.804;24.072;2023-03-13T07:03:00;96965.59;;;3.62;56.24
35878;BME280;21982;49.804;24.072;2023-03-13T07:05:27;97107.19;;;4.56;55.96
35878;BME280;21982;49.804;24.072;2023-03-13T07:07:52;96902.16;;;3.43;56.64
35878;BME280;21982;49.804;24.072;2023-03-13T07:10:18;96945.25;;;3.56;55.96
35878;BME280;21982;49.804;24.072;2023-03-13T07:12:49;97024.38;;;4.20;56.12
35878;BME280;21982;49.804;24.072;2023-03-13T07:15:14;96775.41;;;2.67;55.78
35878;BME280;21982;49.804;24.072;2023-03-13T07:17:40;96854.72;;;3.20;55.87
35878;BME280;21982;49.804;24.072;2023-03-13T07:20:05;97053.63;;;4.33;55.72
35878;BME280;21982;49.804;24.072;2023-03-13T07:22:34;97088.72;;;4.66;55.59
35878;BME280;21982;49.804;24.072;2023-03-13T07:24:59;97023.81;;;4.34;55.35
35878;BME280;21982;49.804;24.072;2023-03-13T07:27:24;96632.53;;;2.07;54.92
35878;BME280;21982;49.804;24.072;2023-03-13T07:29:50;97100.75;;;5.27;54.73
35878;BME280;21982;49.804;24.072;2023-03-13T07:32:15;97004.72;;;4.92;53.85
35878;BME280;21982;49.804;24.072;2023-03-13T07:34:41;97084.75;;;5.54;53.27
35878;BME280;21982;49.804;24.072;2023-03-13T07:37:12;97048.72;;;5.22;53.18
35878;BME280;21982;49.804;24.072;2023-03-13T07:39:37;97003.25;;;4.47;53.14
35878;BME280;21982;49.804;24.072;2023-03-13T07:42:03;96912.00;;;4.09;53.35
35878;BME280;21982;49.804;24.072;2023-03-13T07:44:29;96846.88;;;3.80;53.13
35878;BME280;21982;49.804;24.072;2023-03-13T07:46:54;97052.09;;;4.90;53.25
35878;BME280;21982;49.804;24.072;2023-03-13T07:49:19;97018.50;;;4.94;53.20
35878;BME280;21982;49.804;24.072;2023-03-13T07:51:45;97098.53;;;5.48;53.42
35878;BME280;21982;49.804;24.072;2023-03-13T07:54:12;97026.59;;;5.17;53.08
35878;BME280;21982;49.804;24.072;2023-03-13T07:56:38;97085.41;;;5.56;53.47
35878;BME280;21982;49.804;24.072;2023-03-13T07:59:04;97101.84;;;5.75;53.18
35878;BME280;21982;49.804;24.072;2023-03-13T08:01:29;97081.50;;;5.93;52.83
35878;BME280;21982;49.804;24.072;2023-03-13T08:03:55;96971.31;;;5.34;52.50
35878;BME280;21982;49.804;24.072;2023-03-13T08:06:22;96903.69;;;4.80;52.38
35878;BME280;21982;49.804;24.072;2023-03-13T08:08:49;97002.50;;;5.37;52.14
35878;BME280;21982;49.804;24.072;2023-03-13T08:11:19;96980.81;;;5.11;52.19
35878;BME280;21982;49.804;24.072;2023-03-13T08:13:47;97048.81;;;5.47;52.02
35878;BME280;21982;49.804;24.072;2023-03-13T08:16:19;97079.66;;;5.61;52.24
35878;BME280;21982;49.804;24.072;2023-03-13T08:18:47;97069.50;;;5.66;52.33
35878;BME280;21982;49.804;24.072;2023-03-13T08:21:24;97027.59;;;5.32;52.45
35878;BME280;21982;49.804;24.072;2023-03-13T08:23:55;97069.50;;;5.74;52.50
35878;BME280;21982;49.804;24.072;2023-03-13T08:26:23;96980.50;;;5.14;51.87
35878;BME280;21982;49.804;24.072;2023-03-13T08:28:53;97066.22;;;5.72;52.20
35878;BME280;21982;49.804;24.072;2023-03-13T08:31:24;96854.78;;;4.38;51.95
35878;BME280;21982;49.804;24.072;2023-03-13T08:33:50;96951.44;;;4.99;52.33
35878;BME280;21982;49.804;24.072;2023-03-13T08:36:24;97043.03;;;5.59;51.94
35878;BME280;21982;49.804;24.072;2023-03-13T08:38:51;96888.91;;;4.62;51.46
35878;BME280;21982;49.804;24.072;2023-03-13T08:41:22;97076.06;;;5.70;51.69
35878;BME280;21982;49.804;24.072;2023-03-13T08:43:48;97043.72;;;5.61;51.53
35878;BME280;21982;49.804;24.072;2023-03-13T08:46:14;97055.88;;;5.79;51.52
35878;BME280;21982;49.804;24.072;2023-03-13T08:48:39;96971.31;;;5.34;51.53
35878;BME280;21982;49.804;24.072;2023-03-13T08:51:10;97061.81;;;6.05;51.42
35878;BME280;21982;49.804;24.072;2023-03-13T08:53:37;96982.81;;;5.58;50.95
35878;BME280;21982;49.804;24.072;2023-03-13T08:56:07;97066.53;;;6.26;50.68
35878;BME280;21982;49.804;24.072;2023-03-13T08:58:33;97055.84;;;6.27;50.39
35878;BME280;21982;49.804;24.072;2023-03-13T09:01:09;97056.00;;;6.34;49.91
35878;BME280;21982;49.804;24.072;2023-03-13T09:03:35;97045.22;;;6.21;49.98
35878;BME280;21982;49.804;24.072;2023-03-13T09:06:01;96802.03;;;4.98;49.85
35878;BME280;21982;49.804;24.072;2023-03-13T09:08:30;96947.00;;;5.97;49.44
35878;BME280;21982;49.804;24.072;2023-03-13T09:11:03;97065.09;;;6.79;48.95
35878;BME280;21982;49.804;24.072;2023-03-13T09:13:31;96978.44;;;6.38;48.68
35878;BME280;21982;49.804;24.072;2023-03-13T09:16:05;96907.13;;;6.25;49.03
35878;BME280;21982;49.804;24.072;2023-03-13T09:18:31;97037.44;;;7.45;48.63
35878;BME280;21982;49.804;24.072;2023-03-13T09:20:57;97019.16;;;7.66;48.11
35878;BME280;21982;49.804;24.072;2023-03-13T09:23:22;96988.78;;;7.78;47.23
35878;BME280;21982;49.804;24.072;2023-03-13T09:25:51;96875.81;;;7.23;47.16
35878;BME280;21982;49.804;24.072;2023-03-13T09:28:16;97035.16;;;8.25;46.87
35878;BME280;21982;49.804;24.072;2023-03-13T09:30:42;97016.28;;;8.51;46.94
35878;BME280;21982;49.804;24.072;2023-03-13T09:33:08;97028.13;;;9.20;46.33
35878;BME280;21982;49.804;24.072;2023-03-13T09:35:33;96768.00;;;7.80;44.34
35878;BME280;21982;49.804;24.072;2023-03-13T09:37:58;96776.28;;;8.28;43.82
35878;BME280;21982;49.804;24.072;2023-03-13T09:40:27;96903.81;;;9.50;44.14
35878;BME280;21982;49.804;24.072;2023-03-13T09:42:59;96963.84;;;10.33;43.44
35878;BME280;21982;49.804;24.072;2023-03-13T09:45:37;97020.69;;;10.16;43.31
35878;BME280;21982;49.804;24.072;2023-03-13T09:48:09;97015.31;;;10.02;43.00
35878;BME280;21982;49.804;24.072;2023-03-13T09:50:45;96859.81;;;9.63;43.63
35878;BME280;21982;49.804;24.072;2023-03-13T09:53:14;97002.38;;;11.44;42.94
35878;BME280;21982;49.804;24.072;2023-03-13T09:55:44;96889.81;;;11.27;41.63
35878;BME280;21982;49.804;24.072;2023-03-13T10:00:45;96969.19;;;12.27;40.80
35878;BME280;21982;49.804;24.072;2023-03-13T10:03:16;96961.63;;;12.95;40.36
35878;BME280;21982;49.804;24.072;2023-03-13T10:06:00;97003.19;;;13.97;39.50
35878;BME280;21982;49.804;24.072;2023-03-13T10:08:29;96994.94;;;14.05;39.15
35878;BME280;21982;49.804;24.072;2023-03-13T10:11:12;96968.50;;;14.29;38.30
35878;BME280;21982;49.804;24.072;2023-03-13T10:16:28;97001.47;;;14.78;37.17
35878;BME280;21982;49.804;24.072;2023-03-13T10:18:58;96821.16;;;13.30;37.54
35878;BME280;21982;49.804;24.072;2023-03-13T10:21:31;96989.78;;;13.86;37.43
35878;BME280;21982;49.804;24.072;2023-03-13T10:26:35;96982.53;;;13.68;37.48
35878;BME280;21982;49.804;24.072;2023-03-13T10:29:18;96924.97;;;13.49;37.99
35878;BME280;21982;49.804;24.072;2023-03-13T10:31:51;96485.72;;;10.78;37.38
35878;BME280;21982;49.804;24.072;2023-03-13T10:34:18;96956.44;;;13.52;38.21
35878;BME280;21982;49.804;24.072;2023-03-13T10:36:47;96856.72;;;13.04;38.02
35878;BME280;21982;49.804;24.072;2023-03-13T10:39:18;96871.25;;;13.02;37.75
35878;BME280;21982;49.804;24.072;2023-03-13T10:41:47;97008.53;;;13.66;37.83
35878;BME280;21982;49.804;24.072;2023-03-13T10:44:21;96898.47;;;13.85;37.86
35878;BME280;21982;49.804;24.072;2023-03-13T10:46:48;96977.78;;;14.01;38.91
35878;BME280;21982;49.804;24.072;2023-03-13T10:49:21;96970.28;;;14.60;38.31
35878;BME280;21982;49.804;24.072;2023-03-13T10:51:52;96964.94;;;15.45;37.28
35878;BME280;21982;49.804;24.072;2023-03-13T10:54:32;96972.56;;;15.41;36.32
35878;BME280;21982;49.804;24.072;2023-03-13T10:59:45;96785.00;;;14.09;36.76
35878;BME280;21982;49.804;24.072;2023-03-13T11:02:33;96951.63;;;15.26;37.29
35878;BME280;21982;49.804;24.072;2023-03-13T11:04:59;96959.59;;;15.45;37.17
35878;BME280;21982;49.804;24.072;2023-03-13T11:07:33;96937.94;;;15.53;36.60
35878;BME280;21982;49.804;24.072;2023-03-13T11:12:44;96944.03;;;15.12;37.38
35878;BME280;21982;49.804;24.072;2023-03-13T11:15:14;96954.13;;;15.09;37.63
35878;BME280;21982;49.804;24.072;2023-03-13T11:17:41;96877.06;;;14.90;37.25
35878;BME280;21982;49.804;24.072;2023-03-13T11:23:07;96702.44;;;13.79;37.06
35878;BME280;21982;49.804;24.072;2023-03-13T11:28:51;96914.53;;;14.77;38.09
35878;BME280;21982;49.804;24.072;2023-03-13T11:31:27;96958.75;;;14.66;37.79
35878;BME280;21982;49.804;24.072;2023-03-13T11:36:50;96893.66;;;15.22;37.80
35878;BME280;21982;49.804;24.072;2023-03-13T11:45:14;96920.38;;;15.98;36.92
35878;BME280;21982;49.804;24.072;2023-03-13T11:50:49;96913.88;;;15.83;36.63
35878;BME280;21982;49.804;24.072;2023-03-13T11:56:15;96782.00;;;14.95;36.45
35878;BME280;21982;49.804;24.072;2023-03-13T11:59:20;96882.34;;;15.50;36.62
35878;BME280;21982;49.804;24.072;2023-03-13T12:01:59;96905.38;;;15.32;36.68
35878;BME280;21982;49.804;24.072;2023-03-13T12:04:40;96851.19;;;15.32;36.78
35878;BME280;21982;49.804;24.072;2023-03-13T12:07:29;96836.00;;;15.32;36.36
35878;BME280;21982;49.804;24.072;2023-03-13T12:10:04;96868.47;;;15.29;36.82
35878;BME280;21982;49.804;24.072;2023-03-13T12:17:48;96855.13;;;15.94;36.88
35878;BME280;21982;49.804;24.072;2023-03-13T12:22:45;96843.16;;;15.97;36.32
35878;BME280;21982;49.804;24.072;2023-03-13T12:25:36;96818.47;;;15.78;36.46
35878;BME280;21982;49.804;24.072;2023-03-13T12:28:17;96726.06;;;15.30;35.73
35878;BME280;21982;49.804;24.072;2023-03-13T12:30:55;96846.88;;;16.07;36.23
35878;BME280;21982;49.804;24.072;2023-03-13T12:33:33;96841.78;;;16.06;35.87
35878;BME280;21982;49.804;24.072;2023-03-13T12:36:07;96773.16;;;15.36;35.84
35878;BME280;21982;49.804;24.072;2023-03-13T12:38:43;96849.78;;;16.18;35.99
35878;BME280;21982;49.804;24.072;2023-03-13T12:41:36;96829.47;;;16.05;35.81
35878;BME280;21982;49.804;24.072;2023-03-13T12:44:08;96823.78;;;16.01;35.71
35878;BME280;21982;49.804;24.072;2023-03-13T12:46:40;96810.56;;;15.83;36.10
35878;BME280;21982;49.804;24.072;2023-03-13T13:00:21;96786.09;;;14.68;35.81
35878;BME280;21982;49.804;24.072;2023-03-13T13:08:34;96746.56;;;14.53;36.01
35878;BME280;21982;49.804;24.072;2023-03-13T13:16:49;96689.28;;;13.84;36.44
35878;BME280;21982;49.804;24.072;2023-03-13T13:24:55;96708.28;;;13.26;37.25
35878;BME280;21982;49.804;24.072;2023-03-13T13:29:56;96807.03;;;13.80;37.43
35878;BME280;21982;49.804;24.072;2023-03-13T13:32:43;96815.94;;;13.67;37.50
35878;BME280;21982;49.804;24.072;2023-03-13T13:37:38;96680.03;;;13.07;37.54
35878;BME280;21982;49.804;24.072;2023-03-13T13:40:29;96799.03;;;13.98;37.33
35878;BME280;21982;49.804;24.072;2023-03-13T13:42:59;96748.38;;;13.50;37.18
35878;BME280;21982;49.804;24.072;2023-03-13T13:45:28;96770.91;;;13.22;37.36
35878;BME280;21982;49.804;24.072;2023-03-13T13:48:14;96813.97;;;13.06;38.06
35878;BME280;21982;49.804;24.072;2023-03-13T13:56:33;96772.69;;;12.40;38.26
35878;BME280;21982;49.804;24.072;2023-03-13T14:01:47;96819.72;;;12.27;38.68
35878;BME280;21982;49.804;24.072;2023-03-13T14:04:33;96814.91;;;11.97;38.83
35878;BME280;21982;49.804;24.072;2023-03-13T14:07:02;96783.75;;;11.53;39.41
35878;BME280;21982;49.804;24.072;2023-03-13T14:10:00;96795.78;;;11.69;39.34
35878;BME280;21982;49.804;24.072;2023-03-13T14:12:31;96811.91;;;11.61;39.69
35878;BME280;21982;49.804;24.072;2023-03-13T14:15:15;96752.19;;;11.12;39.98
35878;BME280;21982;49.804;24.072;2023-03-13T14:17:43;96789.28;;;11.25;40.05
35878;BME280;21982;49.804;24.072;2023-03-13T14:20:29;96803.16;;;11.27;39.88
35878;BME280;21982;49.804;24.072;2023-03-13T14:23:00;96777.88;;;11.25;40.01
35878;BME280;21982;49.804;24.072;2023-03-13T14:25:27;96770.75;;;11.25;39.75
35878;BME280;21982;49.804;24.072;2023-03-13T14:28:02;96788.28;;;11.26;39.80
35878;BME280;21982;49.804;24.072;2023-03-13T14:30:29;96798.25;;;11.11;39.77
35878;BME280;21982;49.804;24.072;2023-03-13T14:32:54;96720.00;;;10.75;40.07
35878;BME280;21982;49.804;24.072;2023-03-13T14:35:20;96716.31;;;10.57;40.02
35878;BME280;21982;49.804;24.072;2023-03-13T14:37:51;96769.31;;;10.70;40.42
35878;BME280;21982;49.804;24.072;2023-03-13T14:42:46;96684.59;;;9.89;40.56